sensor_id;sensor_type;location;lat;lon;timestamp;pressure;altitude;pressure_sealevel;temperature;humidity
9822;BME280;4950;46.042;14.472;2023-09-30T00:00:07;98611.81;;;15.90;78.50
9822;BME280;4950;46.042;14.472;2023-09-30T00:02:34;98611.81;;;15.90;78.41
9822;BME280;4950;46.042;14.472;2023-09-30T00:05:01;98616.66;;;15.93;77.86
9822;BME280;4950;46.042;14.472;2023-09-30T00:07:29;98610.94;;;15.83;78.78
9822;BME280;4950;46.042;14.472;2023-09-30T00:09:55;98608.06;;;15.77;78.74
9822;BME280;4950;46.042;14.472;2023-09-30T00:12:22;98611.31;;;15.79;78.69
9822;BME280;4950;46.042;14.472;2023-09-30T00:14:50;98609.69;;;15.78;78.73
9822;BME280;4950;46.042;14.472;2023-09-30T00:17:17;98605.00;;;15.74;78.86
9822;BME280;4950;46.042;14.472;2023-09-30T00:19:44;98611.06;;;15.74;78.70
9822;BME280;4950;46.042;14.472;2023-09-30T00:22:11;98603.03;;;15.76;78.87
9822;BME280;4950;46.042;14.472;2023-09-30T00:24:38;98599.34;;;15.70;79.00
9822;BME280;4950;46.042;14.472;2023-09-30T00:27:04;98602.50;;;15.66;79.42
9822;BME280;4950;46.042;14.472;2023-09-30T00:29:31;98600.06;;;15.64;79.29
9822;BME280;4950;46.042;14.472;2023-09-30T00:32:00;98605.50;;;15.63;78.88
9822;BME280;4950;46.042;14.472;2023-09-30T00:34:27;98603.25;;;15.59;79.41
9822;BME280;4950;46.042;14.472;2023-09-30T00:36:53;98605.06;;;15.59;78.99
9822;BME280;4950;46.042;14.472;2023-09-30T00:39:20;98605.44;;;15.56;79.44
9822;BME280;4950;46.042;14.472;2023-09-30T00:41:48;98604.63;;;15.55;79.17
9822;BME280;4950;46.042;14.472;2023-09-30T00:44:14;98607.88;;;15.57;79.30
9822;BME280;4950;46.042;14.472;2023-09-30T00:46:42;98610.44;;;15.51;79.09
9822;BME280;4950;46.042;14.472;2023-09-30T00:49:10;98614.31;;;15.55;79.37
9822;BME280;4950;46.042;14.472;2023-09-30T00:51:40;98618.34;;;15.57;79.18
9822;BME280;4950;46.042;14.472;2023-09-30T00:54:07;98616.34;;;15.59;79.17
9822;BME280;4950;46.042;14.472;2023-09-30T00:56:37;98613.28;;;15.56;78.78
9822;BME280;4950;46.042;14.472;2023-09-30T00:59:08;98603.84;;;15.55;78.38
9822;BME280;4950;46.042;14.472;2023-09-30T01:01:34;98601.75;;;15.50;78.76
9822;BME280;4950;46.042;14.472;2023-09-30T01:04:02;98608.75;;;15.43;79.17
9822;BME280;4950;46.042;14.472;2023-09-30T01:06:30;98595.78;;;15.35;78.77
9822;BME280;4950;46.042;14.472;2023-09-30T01:08:57;98598.03;;;15.16;79.63
9822;BME280;4950;46.042;14.472;2023-09-30T01:11:24;98605.59;;;15.11;80.55
9822;BME280;4950;46.042;14.472;2023-09-30T01:13:52;98613.91;;;15.15;80.37
9822;BME280;4950;46.042;14.472;2023-09-30T01:16:18;98613.53;;;15.18;80.19
9822;BME280;4950;46.042;14.472;2023-09-30T01:18:45;98614.59;;;15.24;80.57
9822;BME280;4950;46.042;14.472;2023-09-30T01:21:12;98609.06;;;15.33;79.88
9822;BME280;4950;46.042;14.472;2023-09-30T01:23:40;98612.03;;;15.30;79.61
9822;BME280;4950;46.042;14.472;2023-09-30T01:26:10;98610.81;;;15.26;79.77
9822;BME280;4950;46.042;14.472;2023-09-30T01:28:37;98602.69;;;15.21;79.83
9822;BME280;4950;46.042;14.472;2023-09-30T01:31:05;98602.69;;;15.21;80.05
9822;BME280;4950;46.042;14.472;2023-09-30T01:33:32;98601.38;;;15.10;80.00
9822;BME280;4950;46.042;14.472;2023-09-30T01:35:59;98599.25;;;14.99;80.64
9822;BME280;4950;46.042;14.472;2023-09-30T01:38:26;98602.88;;;14.98;81.27
9822;BME280;4950;46.042;14.472;2023-09-30T01:40:54;98604.00;;;15.10;80.65
9822;BME280;4950;46.042;14.472;2023-09-30T01:43:21;98598.59;;;15.12;80.69
9822;BME280;4950;46.042;14.472;2023-09-30T01:45:47;98601.00;;;15.13;80.58
9822;BME280;4950;46.042;14.472;2023-09-30T01:48:14;98596.72;;;15.06;80.32
9822;BME280;4950;46.042;14.472;2023-09-30T01:50:41;98590.78;;;14.97;80.92
9822;BME280;4950;46.042;14.472;2023-09-30T01:53:08;98596.50;;;15.07;80.72
9822;BME280;4950;46.042;14.472;2023-09-30T01:55:34;98600.94;;;15.07;80.47
9822;BME280;4950;46.042;14.472;2023-09-30T01:58:03;98597.53;;;15.06;79.91
9822;BME280;4950;46.042;14.472;2023-09-30T02:00:30;98605.91;;;15.01;79.74
9822;BME280;4950;46.042;14.472;2023-09-30T02:02:57;98607.47;;;14.96;79.85
9822;BME280;4950;46.042;14.472;2023-09-30T02:05:24;98603.06;;;14.96;79.62
9822;BME280;4950;46.042;14.472;2023-09-30T02:07:51;98606.47;;;14.97;80.13
9822;BME280;4950;46.042;14.472;2023-09-30T02:10:18;98601.31;;;15.04;79.63
9822;BME280;4950;46.042;14.472;2023-09-30T02:12:44;98600.13;;;15.06;79.76
9822;BME280;4950;46.042;14.472;2023-09-30T02:15:13;98593.22;;;14.98;80.04
9822;BME280;4950;46.042;14.472;2023-09-30T02:17:40;98589.47;;;14.86;80.61
9822;BME280;4950;46.042;14.472;2023-09-30T02:20:11;98585.41;;;14.84;80.79
9822;BME280;4950;46.042;14.472;2023-09-30T02:22:42;98576.31;;;14.79;81.67
9822;BME280;4950;46.042;14.472;2023-09-30T02:25:10;98572.88;;;14.79;82.03
9822;BME280;4950;46.042;14.472;2023-09-30T02:27:38;98561.00;;;14.76;81.91
9822;BME280;4950;46.042;14.472;2023-09-30T02:30:08;98567.34;;;14.67;82.65
9822;BME280;4950;46.042;14.472;2023-09-30T02:32:38;98565.00;;;14.57;83.13
9822;BME280;4950;46.042;14.472;2023-09-30T02:35:05;98562.72;;;14.54;82.92
9822;BME280;4950;46.042;14.472;2023-09-30T02:37:33;98560.09;;;14.54;83.10
9822;BME280;4950;46.042;14.472;2023-09-30T02:40:02;98555.00;;;14.61;83.21
9822;BME280;4950;46.042;14.472;2023-09-30T02:42:35;98557.63;;;14.61;82.49
9822;BME280;4950;46.042;14.472;2023-09-30T02:45:02;98559.28;;;14.54;83.04
9822;BME280;4950;46.042;14.472;2023-09-30T02:47:28;98554.06;;;14.54;83.37
9822;BME280;4950;46.042;14.472;2023-09-30T02:49:58;98561.47;;;14.65;82.98
9822;BME280;4950;46.042;14.472;2023-09-30T02:52:24;98561.31;;;14.67;82.83
9822;BME280;4950;46.042;14.472;2023-09-30T02:54:51;98566.97;;;14.55;82.95
9822;BME280;4950;46.042;14.472;2023-09-30T02:57:18;98569.06;;;14.45;83.75
9822;BME280;4950;46.042;14.472;2023-09-30T02:59:45;98580.94;;;14.48;84.48
9822;BME280;4950;46.042;14.472;2023-09-30T03:02:11;98579.94;;;14.64;84.22
9822;BME280;4950;46.042;14.472;2023-09-30T03:04:38;98578.69;;;14.59;84.15
9822;BME280;4950;46.042;14.472;2023-09-30T03:07:06;98585.91;;;14.57;84.58
9822;BME280;4950;46.042;14.472;2023-09-30T03:09:34;98589.31;;;14.58;84.54
9822;BME280;4950;46.042;14.472;2023-09-30T03:12:01;98599.47;;;14.53;84.95
9822;BME280;4950;46.042;14.472;2023-09-30T03:14:30;98592.56;;;14.60;84.75
9822;BME280;4950;46.042;14.472;2023-09-30T03:16:57;98585.91;;;14.57;84.55
9822;BME280;4950;46.042;14.472;2023-09-30T03:19:24;98590.34;;;14.57;84.91
9822;BME280;4950;46.042;14.472;2023-09-30T03:21:50;98589.84;;;14.53;84.71
9822;BME280;4950;46.042;14.472;2023-09-30T03:24:19;98590.47;;;14.55;84.98
9822;BME280;4950;46.042;14.472;2023-09-30T03:26:46;98586.22;;;14.54;85.19
9822;BME280;4950;46.042;14.472;2023-09-30T03:29:13;98589.84;;;14.53;85.24
9822;BME280;4950;46.042;14.472;2023-09-30T03:31:39;98594.38;;;14.59;84.96
9822;BME280;4950;46.042;14.472;2023-09-30T03:34:06;98595.41;;;14.50;84.86
9822;BME280;4950;46.042;14.472;2023-09-30T03:36:34;98602.72;;;14.40;85.74
9822;BME280;4950;46.042;14.472;2023-09-30T03:39:01;98607.78;;;14.41;85.99
9822;BME280;4950;46.042;14.472;2023-09-30T03:41:34;98601.66;;;14.49;85.94
9822;BME280;4950;46.042;14.472;2023-09-30T03:44:02;98604.50;;;14.54;85.71
9822;BME280;4950;46.042;14.472;2023-09-30T03:46:29;98594.44;;;14.51;85.80
9822;BME280;4950;46.042;14.472;2023-09-30T03:48:56;98597.97;;;14.58;85.36
9822;BME280;4950;46.042;14.472;2023-09-30T03:51:24;98597.50;;;14.55;85.37
9822;BME280;4950;46.042;14.472;2023-09-30T03:53:51;98607.50;;;14.51;85.86
9822;BME280;4950;46.042;14.472;2023-09-30T03:56:18;98603.88;;;14.52;86.21
9822;BME280;4950;46.042;14.472;2023-09-30T03:58:48;98598.66;;;14.52;85.31
9822;BME280;4950;46.042;14.472;2023-09-30T04:01:14;98595.19;;;14.45;85.69
9822;BME280;4950;46.042;14.472;2023-09-30T04:03:42;98602.72;;;14.40;85.77
9822;BME280;4950;46.042;14.472;2023-09-30T04:06:09;98595.88;;;14.39;85.65
9822;BME280;4950;46.042;14.472;2023-09-30T04:08:37;98594.44;;;14.36;85.66
9822;BME280;4950;46.042;14.472;2023-09-30T04:11:04;98580.75;;;14.34;85.74
9822;BME280;4950;46.042;14.472;2023-09-30T04:13:31;98584.00;;;14.36;85.40
9822;BME280;4950;46.042;14.472;2023-09-30T04:16:00;98585.41;;;14.39;85.21
9822;BME280;4950;46.042;14.472;2023-09-30T04:18:26;98577.69;;;14.31;84.60
9822;BME280;4950;46.042;14.472;2023-09-30T04:20:53;98579.75;;;14.20;85.29
9822;BME280;4950;46.042;14.472;2023-09-30T04:23:20;98583.44;;;14.11;86.08
9822;BME280;4950;46.042;14.472;2023-09-30T04:25:50;98589.31;;;13.98;86.36
9822;BME280;4950;46.042;14.472;2023-09-30T04:28:16;98586.69;;;13.98;86.22
9822;BME280;4950;46.042;14.472;2023-09-30T04:30:47;98585.22;;;13.96;85.95
9822;BME280;4950;46.042;14.472;2023-09-30T04:33:16;98587.19;;;13.94;86.51
9822;BME280;4950;46.042;14.472;2023-09-30T04:35:44;98594.78;;;13.89;86.37
9822;BME280;4950;46.042;14.472;2023-09-30T04:38:11;98590.44;;;13.96;86.14
9822;BME280;4950;46.042;14.472;2023-09-30T04:40:38;98592.25;;;13.95;86.00
9822;BME280;4950;46.042;14.472;2023-09-30T04:43:05;98589.81;;;13.94;86.15
9822;BME280;4950;46.042;14.472;2023-09-30T04:45:32;98595.94;;;14.01;86.03
9822;BME280;4950;46.042;14.472;2023-09-30T04:47:59;98605.75;;;14.14;85.54
9822;BME280;4950;46.042;14.472;2023-09-30T04:50:28;98607.84;;;14.18;85.36
9822;BME280;4950;46.042;14.472;2023-09-30T04:52:55;98603.72;;;14.24;85.38
9822;BME280;4950;46.042;14.472;2023-09-30T04:55:23;98603.56;;;14.26;85.62
9822;BME280;4950;46.042;14.472;2023-09-30T04:57:50;98598.75;;;14.29;85.57
9822;BME280;4950;46.042;14.472;2023-09-30T05:00:18;98598.13;;;14.27;85.82
9822;BME280;4950;46.042;14.472;2023-09-30T05:02:50;98597.03;;;14.21;85.88
9822;BME280;4950;46.042;14.472;2023-09-30T05:05:17;98599.56;;;14.15;86.47
9822;BME280;4950;46.042;14.472;2023-09-30T05:07:46;98597.94;;;13.99;87.38
9822;BME280;4950;46.042;14.472;2023-09-30T05:10:14;98603.75;;;13.86;87.72
9822;BME280;4950;46.042;14.472;2023-09-30T05:12:42;98618.75;;;13.69;89.12
9822;BME280;4950;46.042;14.472;2023-09-30T05:15:11;98620.78;;;13.59;89.73
9822;BME280;4950;46.042;14.472;2023-09-30T05:17:38;98622.09;;;13.55;90.25
9822;BME280;4950;46.042;14.472;2023-09-30T05:20:06;98624.63;;;13.48;90.68
9822;BME280;4950;46.042;14.472;2023-09-30T05:22:33;98631.63;;;13.48;90.58
9822;BME280;4950;46.042;14.472;2023-09-30T05:25:01;98632.13;;;13.43;90.91
9822;BME280;4950;46.042;14.472;2023-09-30T05:27:28;98637.53;;;13.41;91.07
9822;BME280;4950;46.042;14.472;2023-09-30T05:29:55;98632.13;;;13.43;90.95
9822;BME280;4950;46.042;14.472;2023-09-30T05:32:21;98638.53;;;13.40;90.99
9822;BME280;4950;46.042;14.472;2023-09-30T05:34:48;98640.69;;;13.29;90.31
9822;BME280;4950;46.042;14.472;2023-09-30T05:37:15;98637.75;;;13.32;91.36
9822;BME280;4950;46.042;14.472;2023-09-30T05:39:42;98643.91;;;13.39;91.64
9822;BME280;4950;46.042;14.472;2023-09-30T05:42:11;98641.72;;;13.51;91.20
9822;BME280;4950;46.042;14.472;2023-09-30T05:44:38;98636.44;;;13.59;90.60
9822;BME280;4950;46.042;14.472;2023-09-30T05:47:05;98641.94;;;13.64;90.82
9822;BME280;4950;46.042;14.472;2023-09-30T05:49:32;98636.88;;;13.62;90.02
9822;BME280;4950;46.042;14.472;2023-09-30T05:51:59;98638.88;;;13.60;90.57
9822;BME280;4950;46.042;14.472;2023-09-30T05:54:26;98648.66;;;13.58;90.25
9822;BME280;4950;46.042;14.472;2023-09-30T05:56:55;98651.09;;;13.60;90.64
9822;BME280;4950;46.042;14.472;2023-09-30T05:59:23;98644.47;;;13.72;89.86
9822;BME280;4950;46.042;14.472;2023-09-30T06:01:51;98647.72;;;13.74;89.61
9822;BME280;4950;46.042;14.472;2023-09-30T06:04:17;98648.19;;;13.78;88.63
9822;BME280;4950;46.042;14.472;2023-09-30T06:06:45;98656.09;;;13.70;88.68
9822;BME280;4950;46.042;14.472;2023-09-30T06:09:11;98664.16;;;13.60;88.50
9822;BME280;4950;46.042;14.472;2023-09-30T06:11:38;98654.69;;;13.59;88.88
9822;BME280;4950;46.042;14.472;2023-09-30T06:14:07;98663.69;;;13.56;88.92
9822;BME280;4950;46.042;14.472;2023-09-30T06:16:35;98663.69;;;13.56;89.36
9822;BME280;4950;46.042;14.472;2023-09-30T06:19:02;98668.84;;;13.65;88.54
9822;BME280;4950;46.042;14.472;2023-09-30T06:21:29;98666.38;;;13.71;87.93
9822;BME280;4950;46.042;14.472;2023-09-30T06:23:56;98668.97;;;13.71;87.07
9822;BME280;4950;46.042;14.472;2023-09-30T06:26:23;98671.63;;;13.63;86.92
9822;BME280;4950;46.042;14.472;2023-09-30T06:28:54;98666.88;;;13.67;87.05
9822;BME280;4950;46.042;14.472;2023-09-30T06:31:21;98666.00;;;13.74;87.05
9822;BME280;4950;46.042;14.472;2023-09-30T06:33:49;98667.25;;;13.78;87.45
9822;BME280;4950;46.042;14.472;2023-09-30T06:36:16;98668.38;;;13.84;87.80
9822;BME280;4950;46.042;14.472;2023-09-30T06:38:43;98667.84;;;13.89;87.57
9822;BME280;4950;46.042;14.472;2023-09-30T06:41:15;98675.44;;;13.98;87.39
9822;BME280;4950;46.042;14.472;2023-09-30T06:43:42;98671.50;;;14.02;87.06
9822;BME280;4950;46.042;14.472;2023-09-30T06:46:09;98676.81;;;14.09;86.80
9822;BME280;4950;46.042;14.472;2023-09-30T06:48:37;98675.03;;;14.25;86.17
9822;BME280;4950;46.042;14.472;2023-09-30T06:51:07;98670.16;;;14.21;85.82
9822;BME280;4950;46.042;14.472;2023-09-30T06:53:34;98684.13;;;14.29;86.04
9822;BME280;4950;46.042;14.472;2023-09-30T06:56:04;98684.13;;;14.29;85.90
9822;BME280;4950;46.042;14.472;2023-09-30T06:58:31;98672.34;;;14.33;85.66
9822;BME280;4950;46.042;14.472;2023-09-30T07:00:58;98675.75;;;14.33;85.30
9822;BME280;4950;46.042;14.472;2023-09-30T07:03:25;98680.28;;;14.39;85.42
9822;BME280;4950;46.042;14.472;2023-09-30T07:05:51;98682.44;;;14.51;85.03
9822;BME280;4950;46.042;14.472;2023-09-30T07:08:21;98683.38;;;14.58;84.90
9822;BME280;4950;46.042;14.472;2023-09-30T07:10:47;98674.88;;;14.56;84.89
9822;BME280;4950;46.042;14.472;2023-09-30T07:13:15;98677.63;;;14.63;85.06
9822;BME280;4950;46.042;14.472;2023-09-30T07:15:43;98676.28;;;14.67;84.76
9822;BME280;4950;46.042;14.472;2023-09-30T07:18:10;98674.94;;;14.71;85.15
9822;BME280;4950;46.042;14.472;2023-09-30T07:20:37;98688.81;;;14.71;85.45
9822;BME280;4950;46.042;14.472;2023-09-30T07:23:04;98685.28;;;14.79;84.99
9822;BME280;4950;46.042;14.472;2023-09-30T07:25:32;98684.28;;;14.80;84.95
9822;BME280;4950;46.042;14.472;2023-09-30T07:28:00;98684.56;;;14.85;85.03
9822;BME280;4950;46.042;14.472;2023-09-30T07:30:27;98694.56;;;14.96;84.22
9822;BME280;4950;46.042;14.472;2023-09-30T07:32:53;98695.28;;;14.90;84.42
9822;BME280;4950;46.042;14.472;2023-09-30T07:35:20;98707.81;;;14.95;84.55
9822;BME280;4950;46.042;14.472;2023-09-30T07:37:47;98711.06;;;14.97;84.90
9822;BME280;4950;46.042;14.472;2023-09-30T07:40:17;98710.31;;;15.03;85.52
9822;BME280;4950;46.042;14.472;2023-09-30T07:42:45;98703.84;;;15.14;85.70
9822;BME280;4950;46.042;14.472;2023-09-30T07:45:12;98707.59;;;15.26;85.11
9822;BME280;4950;46.042;14.472;2023-09-30T07:47:43;98710.72;;;15.36;84.26
9822;BME280;4950;46.042;14.472;2023-09-30T07:50:11;98710.88;;;15.50;84.46
9822;BME280;4950;46.042;14.472;2023-09-30T07:52:38;98708.41;;;15.63;83.14
9822;BME280;4950;46.042;14.472;2023-09-30T07:55:07;98706.84;;;15.69;82.51
9822;BME280;4950;46.042;14.472;2023-09-30T07:57:34;98710.09;;;15.71;82.12
9822;BME280;4950;46.042;14.472;2023-09-30T08:00:03;98711.38;;;15.75;82.10
9822;BME280;4950;46.042;14.472;2023-09-30T08:02:33;98713.66;;;15.85;81.88
9822;BME280;4950;46.042;14.472;2023-09-30T08:05:00;98720.78;;;15.91;81.96
9822;BME280;4950;46.042;14.472;2023-09-30T08:07:26;98712.56;;;15.94;81.60
9822;BME280;4950;46.042;14.472;2023-09-30T08:09:53;98717.22;;;15.98;81.18
9822;BME280;4950;46.042;14.472;2023-09-30T08:12:20;98715.47;;;16.06;80.93
9822;BME280;4950;46.042;14.472;2023-09-30T08:14:47;98716.91;;;16.08;81.04
9822;BME280;4950;46.042;14.472;2023-09-30T08:17:15;98715.09;;;16.09;82.09
9822;BME280;4950;46.042;14.472;2023-09-30T08:19:43;98714.75;;;16.18;82.29
9822;BME280;4950;46.042;14.472;2023-09-30T08:22:10;98711.25;;;16.33;82.52
9822;BME280;4950;46.042;14.472;2023-09-30T08:24:39;98714.53;;;16.42;81.79
9822;BME280;4950;46.042;14.472;2023-09-30T08:27:06;98715.00;;;16.52;81.41
9822;BME280;4950;46.042;14.472;2023-09-30T08:29:33;98713.25;;;16.59;80.81
9822;BME280;4950;46.042;14.472;2023-09-30T08:32:01;98718.31;;;16.67;80.23
9822;BME280;4950;46.042;14.472;2023-09-30T08:34:30;98720.19;;;16.73;79.69
9822;BME280;4950;46.042;14.472;2023-09-30T08:36:57;98722.44;;;16.76;79.15
9822;BME280;4950;46.042;14.472;2023-09-30T08:39:24;98720.41;;;16.78;79.16
9822;BME280;4950;46.042;14.472;2023-09-30T08:41:50;98728.75;;;16.82;79.13
9822;BME280;4950;46.042;14.472;2023-09-30T08:44:18;98722.09;;;16.86;79.58
9822;BME280;4950;46.042;14.472;2023-09-30T08:46:45;98730.63;;;16.95;78.40
9822;BME280;4950;46.042;14.472;2023-09-30T08:49:13;98736.69;;;16.95;78.75
9822;BME280;4950;46.042;14.472;2023-09-30T08:51:43;98735.09;;;17.01;79.06
9822;BME280;4950;46.042;14.472;2023-09-30T08:54:10;98735.91;;;17.02;78.81
9822;BME280;4950;46.042;14.472;2023-09-30T08:56:38;98736.91;;;17.01;78.70
9822;BME280;4950;46.042;14.472;2023-09-30T08:59:07;98745.81;;;17.06;79.24
9822;BME280;4950;46.042;14.472;2023-09-30T09:01:36;98741.59;;;17.12;78.80
9822;BME280;4950;46.042;14.472;2023-09-30T09:04:04;98743.63;;;17.10;78.79
9822;BME280;4950;46.042;14.472;2023-09-30T09:06:31;98742.03;;;17.15;78.82
9822;BME280;4950;46.042;14.472;2023-09-30T09:11:52;98740.25;;;17.23;77.61
9822;BME280;4950;46.042;14.472;2023-09-30T09:14:19;98745.09;;;17.26;77.21
9822;BME280;4950;46.042;14.472;2023-09-30T09:16:53;98735.03;;;17.29;77.36
9822;BME280;4950;46.042;14.472;2023-09-30T09:19:20;98739.66;;;17.34;77.87
9822;BME280;4950;46.042;14.472;2023-09-30T09:21:54;98740.09;;;17.37;77.48
9822;BME280;4950;46.042;14.472;2023-09-30T09:24:29;98738.06;;;17.40;76.94
9822;BME280;4950;46.042;14.472;2023-09-30T09:27:07;98733.25;;;17.43;76.68
9822;BME280;4950;46.042;14.472;2023-09-30T09:29:35;98734.28;;;17.49;76.65
9822;BME280;4950;46.042;14.472;2023-09-30T09:32:12;98729.03;;;17.49;76.72
9822;BME280;4950;46.042;14.472;2023-09-30T09:34:40;98726.03;;;17.52;76.01
9822;BME280;4950;46.042;14.472;2023-09-30T09:37:15;98728.66;;;17.59;75.76
9822;BME280;4950;46.042;14.472;2023-09-30T09:39:52;98723.22;;;17.60;75.66
9822;BME280;4950;46.042;14.472;2023-09-30T09:42:28;98727.66;;;17.66;75.76
9822;BME280;4950;46.042;14.472;2023-09-30T09:44:56;98722.63;;;17.71;75.55
9822;BME280;4950;46.042;14.472;2023-09-30T09:47:23;98718.19;;;17.79;74.94
9822;BME280;4950;46.042;14.472;2023-09-30T09:49:51;98717.03;;;17.88;75.14
9822;BME280;4950;46.042;14.472;2023-09-30T09:52:19;98709.97;;;18.02;74.33
9822;BME280;4950;46.042;14.472;2023-09-30T09:54:46;98711.78;;;18.21;74.19
9822;BME280;4950;46.042;14.472;2023-09-30T09:57:14;98710.75;;;18.49;74.75
9822;BME280;4950;46.042;14.472;2023-09-30T09:59:44;98714.72;;;18.78;72.42
9822;BME280;4950;46.042;14.472;2023-09-30T10:02:14;98712.09;;;18.91;71.42
9822;BME280;4950;46.042;14.472;2023-09-30T10:04:41;98714.94;;;18.97;71.23
9822;BME280;4950;46.042;14.472;2023-09-30T10:07:11;98717.31;;;19.05;70.92
9822;BME280;4950;46.042;14.472;2023-09-30T10:09:45;98721.09;;;19.22;70.26
9822;BME280;4950;46.042;14.472;2023-09-30T10:12:14;98722.66;;;19.37;69.40
9822;BME280;4950;46.042;14.472;2023-09-30T10:14:41;98727.50;;;19.40;69.07
9822;BME280;4950;46.042;14.472;2023-09-30T10:17:10;98727.50;;;19.40;68.91
9822;BME280;4950;46.042;14.472;2023-09-30T10:20:05;98718.56;;;19.41;68.48
9822;BME280;4950;46.042;14.472;2023-09-30T10:22:33;98720.81;;;19.37;68.00
9822;BME280;4950;46.042;14.472;2023-09-30T10:25:02;98719.81;;;19.38;68.02
9822;BME280;4950;46.042;14.472;2023-09-30T10:27:47;98712.09;;;19.43;68.08
9822;BME280;4950;46.042;14.472;2023-09-30T10:30:14;98706.59;;;19.51;68.10
9822;BME280;4950;46.042;14.472;2023-09-30T10:33:10;98715.66;;;19.56;67.71
9822;BME280;4950;46.042;14.472;2023-09-30T10:35:44;98706.31;;;19.60;67.29
9822;BME280;4950;46.042;14.472;2023-09-30T10:38:37;98701.84;;;19.67;67.63
9822;BME280;4950;46.042;14.472;2023-09-30T10:41:06;98705.03;;;19.76;67.51
9822;BME280;4950;46.042;14.472;2023-09-30T10:43:35;98697.53;;;19.79;66.85
9822;BME280;4950;46.042;14.472;2023-09-30T10:46:02;98704.19;;;19.82;66.50
9822;BME280;4950;46.042;14.472;2023-09-30T10:48:36;98709.81;;;19.92;66.98
9822;BME280;4950;46.042;14.472;2023-09-30T10:51:14;98702.44;;;20.01;67.08
9822;BME280;4950;46.042;14.472;2023-09-30T10:53:43;98703.19;;;20.08;65.92
9822;BME280;4950;46.042;14.472;2023-09-30T10:56:10;98714.84;;;20.19;66.17
9822;BME280;4950;46.042;14.472;2023-09-30T10:58:41;98710.13;;;20.27;66.15
9822;BME280;4950;46.042;14.472;2023-09-30T11:01:08;98711.03;;;20.40;66.41
9822;BME280;4950;46.042;14.472;2023-09-30T11:03:37;98709.06;;;20.54;65.72
9822;BME280;4950;46.042;14.472;2023-09-30T11:06:04;98715.72;;;20.63;65.53
9822;BME280;4950;46.042;14.472;2023-09-30T11:08:32;98702.44;;;20.69;63.85
9822;BME280;4950;46.042;14.472;2023-09-30T11:10:59;98700.47;;;20.65;64.56
9822;BME280;4950;46.042;14.472;2023-09-30T11:13:32;98707.13;;;20.67;64.83
9822;BME280;4950;46.042;14.472;2023-09-30T11:16:00;98703.09;;;20.65;65.35
9822;BME280;4950;46.042;14.472;2023-09-30T11:18:27;98702.66;;;20.68;65.62
9822;BME280;4950;46.042;14.472;2023-09-30T11:21:05;98711.16;;;20.70;65.26
9822;BME280;4950;46.042;14.472;2023-09-30T11:23:32;98704.66;;;20.73;66.11
9822;BME280;4950;46.042;14.472;2023-09-30T11:25:58;98700.75;;;20.75;66.50
9822;BME280;4950;46.042;14.472;2023-09-30T11:28:25;98699.28;;;20.79;66.97
9822;BME280;4950;46.042;14.472;2023-09-30T11:30:54;98690.38;;;20.80;66.65
9822;BME280;4950;46.042;14.472;2023-09-30T11:33:21;98688.09;;;20.84;66.52
9822;BME280;4950;46.042;14.472;2023-09-30T11:35:59;98692.69;;;20.88;67.15
9822;BME280;4950;46.042;14.472;2023-09-30T11:38:28;98679.06;;;20.92;67.80
9822;BME280;4950;46.042;14.472;2023-09-30T11:40:59;98690.22;;;20.94;68.02
9822;BME280;4950;46.042;14.472;2023-09-30T11:43:26;98682.63;;;20.97;67.68
9822;BME280;4950;46.042;14.472;2023-09-30T11:46:03;98683.00;;;21.01;66.55
9822;BME280;4950;46.042;14.472;2023-09-30T11:48:30;98678.19;;;20.98;66.37
9822;BME280;4950;46.042;14.472;2023-09-30T11:50:58;98677.34;;;20.97;67.08
9822;BME280;4950;46.042;14.472;2023-09-30T11:53:30;98669.59;;;21.02;67.87
9822;BME280;4950;46.042;14.472;2023-09-30T11:55:57;98662.97;;;21.12;67.54
9822;BME280;4950;46.042;14.472;2023-09-30T11:58:25;98668.25;;;21.42;68.11
9822;BME280;4950;46.042;14.472;2023-09-30T12:00:53;98672.72;;;21.72;67.19
9822;BME280;4950;46.042;14.472;2023-09-30T12:03:20;98673.34;;;21.97;66.20
9822;BME280;4950;46.042;14.472;2023-09-30T12:05:47;98674.63;;;22.18;64.78
9822;BME280;4950;46.042;14.472;2023-09-30T12:08:14;98667.53;;;22.31;63.63
9822;BME280;4950;46.042;14.472;2023-09-30T12:10:42;98667.63;;;22.36;61.43
9822;BME280;4950;46.042;14.472;2023-09-30T12:13:09;98655.53;;;22.40;60.23
9822;BME280;4950;46.042;14.472;2023-09-30T12:15:37;98644.81;;;22.70;60.96
9822;BME280;4950;46.042;14.472;2023-09-30T12:18:04;98648.28;;;22.99;58.46
9822;BME280;4950;46.042;14.472;2023-09-30T12:20:31;98652.84;;;23.16;58.02
9822;BME280;4950;46.042;14.472;2023-09-30T12:22:58;98649.31;;;23.39;56.87
9822;BME280;4950;46.042;14.472;2023-09-30T12:25:25;98639.63;;;23.61;56.96
9822;BME280;4950;46.042;14.472;2023-09-30T12:27:54;98647.97;;;24.04;55.67
9822;BME280;4950;46.042;14.472;2023-09-30T12:30:21;98644.22;;;24.56;54.67
9822;BME280;4950;46.042;14.472;2023-09-30T12:32:48;98643.41;;;24.99;52.93
9822;BME280;4950;46.042;14.472;2023-09-30T12:35:15;98638.31;;;25.47;51.45
9822;BME280;4950;46.042;14.472;2023-09-30T12:37:41;98638.44;;;25.95;50.19
9822;BME280;4950;46.042;14.472;2023-09-30T12:40:11;98638.50;;;26.05;50.18
9822;BME280;4950;46.042;14.472;2023-09-30T12:42:42;98643.34;;;26.08;48.83
9822;BME280;4950;46.042;14.472;2023-09-30T12:45:11;98636.88;;;25.99;49.97
9822;BME280;4950;46.042;14.472;2023-09-30T12:47:38;98639.94;;;25.86;50.61
9822;BME280;4950;46.042;14.472;2023-09-30T12:50:06;98639.25;;;25.95;49.74
9822;BME280;4950;46.042;14.472;2023-09-30T12:52:34;98635.84;;;26.00;49.72
9822;BME280;4950;46.042;14.472;2023-09-30T12:55:00;98637.97;;;26.03;50.01
9822;BME280;4950;46.042;14.472;2023-09-30T12:57:27;98643.13;;;26.20;49.16
9822;BME280;4950;46.042;14.472;2023-09-30T12:59:54;98640.34;;;26.47;48.33
9822;BME280;4950;46.042;14.472;2023-09-30T13:02:22;98642.41;;;26.77;47.61
9822;BME280;4950;46.042;14.472;2023-09-30T13:04:49;98645.13;;;27.08;46.69
9822;BME280;4950;46.042;14.472;2023-09-30T13:07:15;98646.56;;;27.47;46.77
9822;BME280;4950;46.042;14.472;2023-09-30T13:09:42;98640.41;;;27.77;45.61
9822;BME280;4950;46.042;14.472;2023-09-30T13:12:09;98644.16;;;28.07;44.88
9822;BME280;4950;46.042;14.472;2023-09-30T13:14:36;98646.47;;;28.49;44.28
9822;BME280;4950;46.042;14.472;2023-09-30T13:17:04;98646.06;;;28.87;43.89